createdAt,value
2018-08-27T00:00:25.004Z,89.50
2018-08-27T00:02:53.482Z,89.60
2018-08-27T00:05:21.928Z,89.80
2018-08-27T00:07:51.500Z,89.90
2018-08-27T00:10:20.977Z,90.00
2018-08-27T00:12:49.768Z,90.00
2018-08-27T00:15:19.245Z,90.00
2018-08-27T00:17:47.709Z,90.00
2018-08-27T00:20:16.233Z,90.20
2018-08-27T00:22:45.422Z,90.60
2018-08-27T00:25:14.893Z,90.20
2018-08-27T00:27:43.721Z,90.30
2018-08-27T00:30:13.218Z,90.30
2018-08-27T00:32:41.825Z,90.60
2018-08-27T00:35:10.305Z,90.40
2018-08-27T00:37:38.785Z,90.40
2018-08-27T00:40:07.317Z,90.40
2018-08-27T00:42:35.749Z,90.40
2018-08-27T00:45:04.585Z,90.50
2018-08-27T00:47:33.007Z,90.60
2018-08-27T00:50:01.497Z,90.60
2018-08-27T00:52:29.951Z,90.60
2018-08-27T00:54:58.389Z,90.60
2018-08-27T00:57:27.344Z,90.70
2018-08-27T00:59:56.129Z,90.70
2018-08-27T01:02:24.589Z,90.70
2018-08-27T01:04:53.447Z,90.60
2018-08-27T01:07:22.223Z,90.60
2018-08-27T01:10:03.001Z,90.50
2018-08-27T01:12:32.116Z,90.50
2018-08-27T01:15:00.586Z,90.70
2018-08-27T01:17:29.982Z,90.60
2018-08-27T01:19:58.809Z,90.60
2018-08-27T01:22:27.265Z,90.90
2018-08-27T01:24:57.204Z,91.10
2018-08-27T01:27:25.630Z,90.80
2018-08-27T01:29:54.114Z,90.90
2018-08-27T01:32:27.259Z,90.90
2018-08-27T01:34:58.556Z,90.80
2018-08-27T01:37:27.321Z,90.90
2018-08-27T01:39:56.903Z,90.90
2018-08-27T01:42:27.654Z,91.20
2018-08-27T01:44:56.636Z,91.20
2018-08-27T01:47:25.101Z,91.20
2018-08-27T01:49:53.910Z,91.30
2018-08-27T01:52:22.955Z,91.30
2018-08-27T01:54:51.576Z,91.30
2018-08-27T01:57:21.070Z,91.30
2018-08-27T01:59:50.078Z,91.40
2018-08-27T02:02:19.468Z,91.30
2018-08-27T02:04:48.273Z,91.30
2018-08-27T02:07:16.701Z,91.40
2018-08-27T02:09:45.169Z,91.40
2018-08-27T02:12:13.659Z,91.50
2018-08-27T02:14:43.156Z,91.30
2018-08-27T02:17:12.557Z,91.50
2018-08-27T02:19:42.063Z,91.40
2018-08-27T02:22:10.502Z,91.50
2018-08-27T02:24:39.624Z,91.40
2018-08-27T02:27:08.430Z,91.40
2018-08-27T02:29:37.180Z,91.40
2018-08-27T02:32:06.057Z,91.30
2018-08-27T02:34:34.838Z,91.30
2018-08-27T02:37:03.970Z,91.30
2018-08-27T02:39:33.433Z,91.20
2018-08-27T02:42:02.249Z,91.30
2018-08-27T02:44:30.692Z,91.30
2018-08-27T02:46:59.113Z,91.40
2018-08-27T02:49:28.595Z,91.40
2018-08-27T02:51:58.130Z,91.50
2018-08-27T02:54:27.110Z,91.50
2018-08-27T02:56:55.569Z,91.50
2018-08-27T02:59:24.359Z,91.50
2018-08-27T03:01:53.192Z,91.50
2018-08-27T03:04:21.981Z,91.50
2018-08-27T03:06:50.777Z,91.50
2018-08-27T03:09:19.223Z,91.50
2018-08-27T03:11:48.697Z,91.60
2018-08-27T03:14:18.185Z,91.60
2018-08-27T03:16:46.641Z,91.60
2018-08-27T03:19:15.410Z,91.60
2018-08-27T03:21:45.175Z,91.50
2018-08-27T03:24:13.640Z,91.70
2018-08-27T03:26:42.068Z,91.60
2018-08-27T03:29:11.852Z,91.60
2018-08-27T03:31:40.312Z,91.60
2018-08-27T03:34:09.508Z,91.60
2018-08-27T03:36:38.277Z,91.60
2018-08-27T03:39:09.560Z,91.70
2018-08-27T03:41:39.251Z,91.60
2018-08-27T03:44:07.797Z,91.60
2018-08-27T03:46:37.133Z,91.60
2018-08-27T03:49:06.292Z,91.60
2018-08-27T03:51:35.085Z,91.60
2018-08-27T03:54:04.201Z,91.50
2018-08-27T03:56:32.662Z,91.60
2018-08-27T03:59:01.437Z,91.60
2018-08-27T04:01:29.882Z,91.60
2018-08-27T04:03:59.244Z,91.60
2018-08-27T04:06:27.705Z,91.60
2018-08-27T04:08:56.529Z,91.60
2018-08-27T04:11:25.005Z,91.60
2018-08-27T04:13:53.812Z,91.60
2018-08-27T04:16:22.273Z,91.60
2018-08-27T04:18:51.121Z,91.60
2018-08-27T04:21:20.025Z,91.60
2018-08-27T04:23:48.505Z,91.60
2018-08-27T04:26:18.554Z,91.70
2018-08-27T04:28:47.436Z,91.70
2018-08-27T04:31:16.274Z,91.70
2018-08-27T04:33:44.769Z,91.80
2018-08-27T04:36:13.841Z,91.80
2018-08-27T04:38:42.624Z,91.70
2018-08-27T04:41:11.412Z,91.70
2018-08-27T04:43:39.871Z,91.80
2018-08-27T04:46:09.349Z,91.80
2018-08-27T04:48:38.699Z,91.80
2018-08-27T04:51:07.847Z,91.80
2018-08-27T04:53:36.649Z,91.80
2018-08-27T04:56:05.888Z,91.80
2018-08-27T04:58:37.781Z,91.70
2018-08-27T05:01:06.570Z,91.70
2018-08-27T05:03:35.393Z,91.70
2018-08-27T05:06:04.289Z,91.60
2018-08-27T05:08:33.645Z,91.60
2018-08-27T05:11:02.125Z,91.60
2018-08-27T05:13:31.528Z,91.60
2018-08-27T05:16:00.069Z,91.60
2018-08-27T05:18:28.991Z,91.50
2018-08-27T05:21:01.950Z,91.40
2018-08-27T05:23:32.408Z,91.40
2018-08-27T05:26:00.966Z,91.20
2018-08-27T05:28:33.957Z,91.10
2018-08-27T05:31:03.699Z,91.00
2018-08-27T05:33:32.308Z,90.90
2018-08-27T05:36:01.097Z,90.80
2018-08-27T05:38:29.529Z,90.70
2018-08-27T05:40:58.503Z,90.70
2018-08-27T05:43:27.327Z,90.60
2018-08-27T05:45:55.766Z,90.40
2018-08-27T05:48:24.258Z,90.20
2018-08-27T05:50:53.765Z,90.10
2018-08-27T05:53:22.195Z,90.10
2018-08-27T05:55:51.421Z,90.00
2018-08-27T05:58:19.857Z,90.00
2018-08-27T06:00:48.342Z,89.50
2018-08-27T06:03:16.966Z,89.50
2018-08-27T06:05:45.412Z,88.40
2018-08-27T06:08:13.937Z,88.80
2018-08-27T06:10:42.376Z,88.50
2018-08-27T06:13:11.427Z,87.90
2018-08-27T06:15:40.828Z,87.70
2018-08-27T06:18:10.355Z,86.90
2018-08-27T06:20:39.974Z,86.80
2018-08-27T06:23:08.741Z,86.00
2018-08-27T06:25:37.157Z,85.50
2018-08-27T06:28:05.671Z,84.70
2018-08-27T06:30:34.140Z,83.60
2018-08-27T06:33:02.633Z,82.70
2018-08-27T06:35:31.109Z,82.80
2018-08-27T06:37:59.940Z,82.30
2018-08-27T06:40:28.913Z,81.70
2018-08-27T06:42:58.889Z,81.10
2018-08-27T06:45:28.032Z,80.90
2018-08-27T06:47:56.465Z,80.60
2018-08-27T06:50:25.577Z,80.20
2018-08-27T06:52:54.146Z,80.20
2018-08-27T06:55:22.577Z,79.60
2018-08-27T06:57:51.021Z,79.10
2018-08-27T07:00:20.181Z,78.50
2018-08-27T07:02:48.634Z,78.20
2018-08-27T07:05:17.421Z,78.70
2018-08-27T07:07:46.876Z,78.40
2018-08-27T07:10:17.158Z,78.60
2018-08-27T07:12:46.517Z,78.60
2018-08-27T07:15:15.707Z,78.00
2018-08-27T07:17:44.491Z,77.60
2018-08-27T07:20:13.611Z,76.90
2018-08-27T07:22:42.917Z,76.40
2018-08-27T07:25:13.173Z,76.90
2018-08-27T07:27:42.033Z,76.50
2018-08-27T07:30:10.797Z,75.70
2018-08-27T07:32:39.736Z,75.40
2018-08-27T07:35:08.900Z,75.00
2018-08-27T07:37:37.841Z,74.00
2018-08-27T07:40:06.413Z,74.10
2018-08-27T07:42:35.514Z,74.00
2018-08-27T07:45:05.628Z,73.50
2018-08-27T07:47:35.749Z,73.60
2018-08-27T07:50:05.198Z,73.60
2018-08-27T07:52:33.632Z,73.90
2018-08-27T07:55:05.157Z,73.70
2018-08-27T07:57:34.909Z,73.20
2018-08-27T08:00:03.539Z,72.20
2018-08-27T08:02:31.973Z,71.60
2018-08-27T08:05:06.985Z,70.90
2018-08-27T08:07:36.342Z,70.80
2018-08-27T08:10:05.841Z,69.10
2018-08-27T08:12:34.933Z,68.00
2018-08-27T08:15:05.162Z,66.60
2018-08-27T08:17:33.941Z,63.90
2018-08-27T08:20:03.467Z,62.70
2018-08-27T08:22:32.264Z,60.10
2018-08-27T08:25:01.264Z,59.20
2018-08-27T08:27:30.248Z,57.60
2018-08-27T08:30:00.808Z,53.80
2018-08-27T08:32:30.154Z,52.40
2018-08-27T08:34:59.310Z,52.40
2018-08-27T08:37:28.161Z,50.40
2018-08-27T08:39:56.658Z,50.70
2018-08-27T08:42:25.627Z,50.20
2018-08-27T08:44:54.414Z,50.80
2018-08-27T08:47:23.208Z,48.80
2018-08-27T08:49:52.031Z,48.70
2018-08-27T08:52:20.832Z,47.70
2018-08-27T08:54:50.537Z,49.10
2018-08-27T08:57:19.413Z,48.50
2018-08-27T08:59:48.505Z,49.00
2018-08-27T09:02:17.324Z,47.90
2018-08-27T09:04:46.516Z,47.30
2018-08-27T09:07:14.982Z,46.10
2018-08-27T09:09:44.086Z,45.20
2018-08-27T09:12:13.270Z,44.80
2018-08-27T09:14:41.709Z,44.30
2018-08-27T09:17:10.213Z,44.50
2018-08-27T09:19:39.179Z,44.10
2018-08-27T09:22:08.993Z,44.30
2018-08-27T09:24:37.168Z,43.70
2018-08-27T09:27:05.952Z,43.60
2018-08-27T09:29:34.731Z,43.40
2018-08-27T09:32:03.570Z,44.00
2018-08-27T09:34:32.634Z,44.10
2018-08-27T09:37:01.192Z,43.50
2018-08-27T09:39:30.854Z,43.30
2018-08-27T09:41:59.054Z,43.20
2018-08-27T09:44:27.524Z,42.40
2018-08-27T09:46:55.861Z,42.10
2018-08-27T09:49:25.441Z,42.50
2018-08-27T09:51:53.888Z,41.80
2018-08-27T09:54:22.413Z,41.30
2018-08-27T09:56:50.601Z,41.20
2018-08-27T09:59:18.797Z,40.90
2018-08-27T10:01:52.837Z,41.10
2018-08-27T10:04:21.332Z,41.10
2018-08-27T10:06:49.511Z,40.70
2018-08-27T10:09:18.011Z,41.40
2018-08-27T10:11:46.180Z,41.60
2018-08-27T10:14:14.964Z,42.00
2018-08-27T10:16:43.176Z,42.60
2018-08-27T10:19:11.358Z,42.70
2018-08-27T10:21:41.340Z,42.70
2018-08-27T10:24:09.858Z,43.00
2018-08-27T10:26:38.112Z,43.30
2018-08-27T10:29:06.768Z,43.00
2018-08-27T10:31:35.395Z,42.70
2018-08-27T10:34:03.572Z,43.40
2018-08-27T10:36:32.398Z,44.00
2018-08-27T10:39:01.316Z,44.10
2018-08-27T10:41:29.485Z,44.40
2018-08-27T10:43:58.330Z,43.90
2018-08-27T10:46:26.522Z,44.10
2018-08-27T10:48:55.429Z,44.20
2018-08-27T10:51:23.609Z,44.50
2018-08-27T10:53:52.476Z,44.90
2018-08-27T10:56:21.185Z,45.60
2018-08-27T10:58:49.350Z,45.80
2018-08-27T11:01:17.905Z,45.50
2018-08-27T11:03:47.001Z,45.40
2018-08-27T11:06:15.668Z,45.50
2018-08-27T11:08:43.930Z,46.00
2018-08-27T11:11:12.421Z,46.30
2018-08-27T11:13:41.189Z,46.10
2018-08-27T11:16:09.673Z,46.10
2018-08-27T11:18:38.342Z,46.00
2018-08-27T11:21:07.121Z,45.80
2018-08-27T11:23:35.901Z,45.20
2018-08-27T11:26:04.752Z,45.20
2018-08-27T11:28:33.257Z,44.90
2018-08-27T11:31:01.782Z,45.40
2018-08-27T11:33:30.213Z,44.80
2018-08-27T11:35:58.710Z,45.20
2018-08-27T11:38:27.226Z,45.50
2018-08-27T11:40:55.693Z,45.30
2018-08-27T11:43:24.176Z,45.40
2018-08-27T11:45:52.809Z,46.00
2018-08-27T11:48:20.966Z,45.50
2018-08-27T11:50:49.194Z,45.90
2018-08-27T11:53:17.801Z,46.00
2018-08-27T11:55:46.557Z,46.30
2018-08-27T11:58:14.717Z,46.00
2018-08-27T12:00:48.589Z,45.90
2018-08-27T12:03:16.773Z,45.40
2018-08-27T12:05:45.262Z,45.30
2018-08-27T12:08:13.815Z,45.90
2018-08-27T12:10:43.640Z,45.40
2018-08-27T12:13:11.822Z,44.90
2018-08-27T12:15:40.000Z,44.70
2018-08-27T12:18:08.558Z,44.90
2018-08-27T12:20:37.093Z,44.90
2018-08-27T12:23:05.649Z,45.00
2018-08-27T12:25:33.814Z,45.80
2018-08-27T12:28:02.425Z,46.80
2018-08-27T12:30:30.977Z,47.20
2018-08-27T12:32:59.154Z,47.70
2018-08-27T12:35:27.647Z,47.80
2018-08-27T12:37:56.397Z,48.20
2018-08-27T12:40:24.540Z,48.30
2018-08-27T12:42:53.081Z,48.20
2018-08-27T12:45:21.309Z,48.10
2018-08-27T12:47:49.848Z,48.00
2018-08-27T12:50:18.351Z,47.70
2018-08-27T12:52:47.189Z,47.40
2018-08-27T12:55:16.393Z,47.50
2018-08-27T12:57:44.881Z,47.40
2018-08-27T13:00:16.921Z,47.60
2018-08-27T13:02:46.493Z,47.90
2018-08-27T13:05:15.229Z,47.30
2018-08-27T13:07:45.015Z,47.60
2018-08-27T13:10:14.281Z,47.50
2018-08-27T13:12:43.137Z,47.10
2018-08-27T13:15:11.554Z,47.00
2018-08-27T13:17:40.770Z,46.00
2018-08-27T13:20:10.345Z,45.90
2018-08-27T13:22:38.941Z,45.50
2018-08-27T13:25:08.033Z,45.00
2018-08-27T13:27:36.199Z,43.90
2018-08-27T13:30:05.490Z,44.10
2018-08-27T13:32:34.510Z,43.60
2018-08-27T13:35:03.094Z,43.70
2018-08-27T13:37:31.598Z,44.10
2018-08-27T13:40:00.291Z,43.90
2018-08-27T13:42:29.520Z,44.20
2018-08-27T13:44:57.729Z,43.70
2018-08-27T13:47:27.261Z,43.80
2018-08-27T13:49:55.441Z,43.00
2018-08-27T13:52:23.628Z,43.10
2018-08-27T13:54:52.456Z,43.20
2018-08-27T13:57:20.982Z,43.40
2018-08-27T13:59:49.548Z,43.80
2018-08-27T14:02:18.558Z,43.10
2018-08-27T14:04:46.738Z,43.70
2018-08-27T14:07:15.884Z,43.80
2018-08-27T14:09:44.060Z,44.10
2018-08-27T14:12:13.598Z,44.10
2018-08-27T14:14:41.871Z,44.30
2018-08-27T14:17:10.109Z,43.90
2018-08-27T14:19:38.336Z,43.90
2018-08-27T14:22:06.988Z,44.50
2018-08-27T14:24:35.526Z,44.50
2018-08-27T14:27:04.057Z,44.30
2018-08-27T14:29:32.590Z,44.40
2018-08-27T14:32:00.759Z,44.50
2018-08-27T14:34:30.741Z,44.50
2018-08-27T14:37:00.309Z,44.40
2018-08-27T14:39:29.164Z,44.20
2018-08-27T14:42:32.162Z,44.10
2018-08-27T14:45:01.328Z,44.20
2018-08-27T14:47:29.706Z,44.50
2018-08-27T14:49:58.803Z,44.60
2018-08-27T14:52:27.993Z,44.80
2018-08-27T14:54:56.166Z,44.40
2018-08-27T14:57:24.694Z,44.10
2018-08-27T14:59:53.187Z,43.60
2018-08-27T15:02:21.350Z,43.50
2018-08-27T15:04:51.681Z,43.50
2018-08-27T15:07:21.911Z,43.90
2018-08-27T15:09:54.286Z,44.10
2018-08-27T15:12:29.150Z,44.10
2018-08-27T15:14:58.932Z,44.20
2018-08-27T15:17:30.674Z,44.20
2018-08-27T15:19:58.859Z,44.00
2018-08-27T15:22:27.068Z,44.10
2018-08-27T15:24:56.237Z,44.30
2018-08-27T15:27:24.770Z,44.40
2018-08-27T15:29:54.204Z,44.80
2018-08-27T15:32:22.753Z,44.60
2018-08-27T15:34:51.798Z,44.80
2018-08-27T15:37:20.384Z,45.00
2018-08-27T15:39:49.093Z,45.10
2018-08-27T15:42:18.070Z,45.10
2018-08-27T15:44:46.605Z,45.80
2018-08-27T15:47:17.338Z,49.60
2018-08-27T15:49:45.504Z,51.00
2018-08-27T15:52:14.240Z,51.40
2018-08-27T15:54:42.444Z,52.40
2018-08-27T15:57:10.694Z,52.90
2018-08-27T15:59:39.125Z,53.50
2018-08-27T16:02:07.667Z,54.10
2018-08-27T16:04:36.921Z,54.40
2018-08-27T16:07:07.949Z,55.40
2018-08-27T16:09:36.838Z,55.70
2018-08-27T16:12:05.486Z,56.00
2018-08-27T16:14:34.048Z,56.10
2018-08-27T16:17:02.276Z,56.00
2018-08-27T16:19:31.279Z,56.10
2018-08-27T16:22:00.059Z,56.10
2018-08-27T16:24:32.434Z,56.10
2018-08-27T16:27:01.239Z,55.80
2018-08-27T16:32:15.645Z,55.50
2018-08-27T16:34:44.057Z,54.60
2018-08-27T16:37:12.829Z,54.10
2018-08-27T16:39:41.789Z,53.60
2018-08-27T16:42:10.312Z,53.60
2018-08-27T16:44:39.461Z,53.90
2018-08-27T16:47:08.757Z,54.00
2018-08-27T16:49:37.012Z,54.30
2018-08-27T16:52:21.511Z,53.40
2018-08-27T16:54:50.784Z,53.70
2018-08-27T16:57:19.340Z,53.60
2018-08-27T16:59:47.882Z,53.70
2018-08-27T17:02:17.380Z,53.50
2018-08-27T17:04:47.366Z,53.40
2018-08-27T17:07:18.786Z,53.40
2018-08-27T17:09:47.380Z,53.10
2018-08-27T17:12:17.913Z,53.10
2018-08-27T17:14:50.685Z,53.40
2018-08-27T17:17:19.679Z,53.50
2018-08-27T17:19:48.245Z,53.30
2018-08-27T17:22:16.463Z,53.60
2018-08-27T17:24:44.705Z,53.80
2018-08-27T17:27:12.911Z,53.70
2018-08-27T17:29:41.444Z,53.70
2018-08-27T17:32:10.518Z,53.90
2018-08-27T17:34:39.676Z,54.00
2018-08-27T17:37:08.662Z,54.10
2018-08-27T17:39:36.841Z,54.10
2018-08-27T17:42:06.230Z,54.10
2018-08-27T17:44:34.423Z,54.40
2018-08-27T17:47:04.413Z,54.60
2018-08-27T17:49:33.342Z,54.90
2018-08-27T17:52:18.819Z,55.20
2018-08-27T18:10:12.724Z,55.60
2018-08-27T18:12:41.589Z,56.30
2018-08-27T18:15:11.650Z,56.60
2018-08-27T18:17:40.501Z,57.10
2018-08-27T18:20:09.645Z,57.10
2018-08-27T18:22:38.213Z,57.30
2018-08-27T18:25:08.282Z,57.70
2018-08-27T18:27:37.480Z,57.90
2018-08-27T18:30:06.833Z,57.90
2018-08-27T18:32:36.428Z,57.80
2018-08-27T18:35:06.386Z,58.00
2018-08-27T18:37:35.177Z,58.20
2018-08-27T18:40:04.624Z,58.60
2018-08-27T18:42:33.067Z,58.80
2018-08-27T18:45:32.430Z,59.20
2018-08-27T18:48:01.568Z,59.60
2018-08-27T18:50:32.137Z,60.40
2018-08-27T18:53:04.149Z,61.20
2018-08-27T18:55:33.983Z,61.30
2018-08-27T18:58:03.429Z,62.10
2018-08-27T19:00:31.663Z,62.50
2018-08-27T19:03:03.175Z,63.10
2018-08-27T19:05:32.220Z,64.20
2018-08-27T19:08:01.651Z,64.80
2018-08-27T19:10:30.513Z,65.70
2018-08-27T19:12:59.439Z,66.60
2018-08-27T19:15:28.086Z,67.10
2018-08-27T19:17:56.550Z,67.30
2018-08-27T19:20:25.084Z,68.00
2018-08-27T19:22:56.198Z,68.00
2018-08-27T19:25:25.218Z,68.50
2018-08-27T19:27:54.949Z,68.80
2018-08-27T19:30:23.754Z,69.20
2018-08-27T19:32:52.611Z,69.50
2018-08-27T19:35:21.560Z,69.70
2018-08-27T19:37:50.188Z,70.00
2018-08-27T19:40:19.053Z,70.20
2018-08-27T19:42:48.235Z,71.00
2018-08-27T19:45:17.090Z,71.10
2018-08-27T19:47:45.569Z,71.10
2018-08-27T19:50:14.676Z,71.40
2018-08-27T19:52:43.481Z,71.70
2018-08-27T19:55:12.077Z,71.70
2018-08-27T19:57:40.883Z,72.10
2018-08-27T20:03:05.629Z,72.50
2018-08-27T20:05:35.321Z,72.90
2018-08-27T20:08:04.228Z,73.00
2018-08-27T20:10:34.453Z,73.10
2018-08-27T20:15:42.231Z,73.70
2018-08-27T20:18:12.981Z,74.00
2018-08-27T20:20:42.564Z,74.20
2018-08-27T20:23:11.818Z,74.70
2018-08-27T20:25:40.768Z,74.80
2018-08-27T20:28:10.077Z,75.60
2018-08-27T20:30:39.015Z,75.60
2018-08-27T20:33:08.967Z,75.70
2018-08-27T20:35:38.365Z,75.90
2018-08-27T20:38:07.430Z,76.10
2018-08-27T20:40:36.367Z,76.10
2018-08-27T20:43:05.345Z,76.60
2018-08-27T20:45:36.207Z,77.00
2018-08-27T20:48:05.714Z,77.10
2018-08-27T20:50:35.191Z,77.30
2018-08-27T20:53:04.157Z,77.50
2018-08-27T20:55:33.406Z,77.70
2018-08-27T20:58:02.594Z,78.00
2018-08-27T21:00:32.673Z,78.20
2018-08-27T21:03:05.837Z,78.50
2018-08-27T21:05:35.138Z,78.80
2018-08-27T21:08:04.308Z,79.10
2018-08-27T21:10:33.930Z,79.10
2018-08-27T21:13:02.726Z,79.30
2018-08-27T21:15:32.263Z,79.40
2018-08-27T21:18:06.416Z,79.90
2018-08-27T21:20:36.501Z,80.10
2018-08-27T21:23:06.434Z,80.20
2018-08-27T21:25:37.794Z,80.40
2018-08-27T21:28:06.479Z,80.70
2018-08-27T21:30:35.321Z,80.90
2018-08-27T21:33:05.733Z,81.10
2018-08-27T21:35:40.272Z,81.50
2018-08-27T21:38:10.150Z,81.60
2018-08-27T21:40:40.353Z,82.20
2018-08-27T21:43:10.448Z,82.30
2018-08-27T21:45:39.443Z,82.90
2018-08-27T21:48:09.561Z,82.50
2018-08-27T21:50:38.569Z,82.60
2018-08-27T21:53:07.667Z,82.50
2018-08-27T21:55:36.619Z,82.60
2018-08-27T21:58:05.784Z,82.80
2018-08-27T22:00:38.625Z,83.10
2018-08-27T22:03:17.738Z,83.20
2018-08-27T22:05:46.964Z,83.40
2018-08-27T22:08:15.845Z,83.50
2018-08-27T22:10:44.376Z,83.50
2018-08-27T22:13:13.588Z,83.70
2018-08-27T22:15:42.477Z,84.00
2018-08-27T22:18:23.155Z,84.20
2018-08-27T22:20:51.747Z,84.40
2018-08-27T22:23:21.867Z,84.70
2018-08-27T22:25:51.575Z,84.70
2018-08-27T22:28:24.440Z,85.00
2018-08-27T22:30:53.036Z,85.30
2018-08-27T22:33:22.461Z,85.40
2018-08-27T22:35:51.440Z,85.70
2018-08-27T22:38:20.884Z,86.00
2018-08-27T22:40:50.731Z,86.30
2018-08-27T22:43:19.566Z,87.10
2018-08-27T22:45:51.487Z,87.10
2018-08-27T22:48:20.355Z,87.20
2018-08-27T22:50:48.999Z,87.20
2018-08-27T22:53:18.023Z,87.40
2018-08-27T22:55:46.912Z,87.60
2018-08-27T22:58:15.739Z,87.80
2018-08-27T23:00:46.948Z,88.10
2018-08-27T23:03:21.029Z,88.30
2018-08-27T23:05:49.603Z,88.70
2018-08-27T23:08:18.820Z,89.00
2018-08-27T23:10:47.472Z,89.50
2018-08-27T23:13:16.668Z,89.60
2018-08-27T23:15:47.036Z,89.90
2018-08-27T23:18:17.343Z,90.10
2018-08-27T23:20:46.917Z,90.20
2018-08-27T23:23:15.847Z,90.30
2018-08-27T23:25:44.937Z,90.50
2018-08-27T23:28:13.590Z,90.60
2018-08-27T23:30:43.590Z,90.70
2018-08-27T23:33:14.553Z,90.90
2018-08-27T23:35:43.913Z,90.90
2018-08-27T23:38:13.162Z,91.30
2018-08-27T23:40:43.039Z,91.20
2018-08-27T23:43:12.218Z,91.30
2018-08-27T23:45:41.879Z,91.40
2018-08-27T23:48:11.330Z,91.50
2018-08-27T23:50:41.385Z,91.60
2018-08-27T23:53:09.989Z,91.80
2018-08-27T23:55:39.494Z,91.70
2018-08-27T23:58:09.207Z,91.80
